createdAt,value
2023-04-15T00:01:50.499Z,10.70
2023-04-15T00:04:53.388Z,10.93
2023-04-15T00:07:59.308Z,10.65
2023-04-15T00:11:05.936Z,10.15
2023-04-15T00:14:09.012Z,10.40
2023-04-15T00:17:11.726Z,11.93
2023-04-15T00:20:14.727Z,10.18
2023-04-15T00:23:18.199Z,13.43
2023-04-15T00:26:21.289Z,14.65
2023-04-15T00:29:24.276Z,12.30
2023-04-15T00:32:27.082Z,11.30
2023-04-15T00:35:32.844Z,12.48
2023-04-15T00:38:36.905Z,11.95
2023-04-15T00:41:43.098Z,11.48
2023-04-15T00:44:49.045Z,15.77
2023-04-15T00:47:52.130Z,12.93
2023-04-15T00:50:54.899Z,14.45
2023-04-15T00:53:58.037Z,12.48
2023-04-15T00:57:00.999Z,13.77
2023-04-15T01:00:05.934Z,13.45
2023-04-15T01:03:10.213Z,12.37
2023-04-15T01:06:13.258Z,12.00
2023-04-15T01:09:18.980Z,11.70
2023-04-15T01:12:21.793Z,11.65
2023-04-15T01:15:24.495Z,11.12
2023-04-15T01:18:30.714Z,11.13
2023-04-15T01:21:33.576Z,10.00
2023-04-15T01:24:40.182Z,11.40
2023-04-15T01:27:43.027Z,12.60
2023-04-15T01:30:48.782Z,15.93
2023-04-15T01:33:51.600Z,13.83
2023-04-15T01:36:54.249Z,14.90
2023-04-15T01:39:58.337Z,13.65
2023-04-15T01:43:02.402Z,16.52
2023-04-15T01:46:05.468Z,13.55
2023-04-15T01:49:08.727Z,16.77
2023-04-15T01:52:11.425Z,14.18
2023-04-15T01:55:14.671Z,12.82
2023-04-15T01:58:20.928Z,13.23
2023-04-15T02:01:25.203Z,13.52
2023-04-15T02:04:31.934Z,13.00
2023-04-15T02:07:34.637Z,13.27
2023-04-15T02:10:37.380Z,13.23
2023-04-15T02:13:40.448Z,12.95
2023-04-15T02:16:43.246Z,14.25
2023-04-15T02:19:46.825Z,14.20
2023-04-15T02:22:49.752Z,12.37
2023-04-15T02:25:53.537Z,13.32
2023-04-15T02:28:57.482Z,12.60
2023-04-15T02:32:00.729Z,14.00
2023-04-15T02:35:05.791Z,12.43
2023-04-15T02:38:12.326Z,12.93
2023-04-15T02:41:15.211Z,12.05
2023-04-15T02:44:21.119Z,12.98
2023-04-15T02:47:23.946Z,11.80
2023-04-15T02:50:30.051Z,11.37
2023-04-15T02:53:32.950Z,12.57
2023-04-15T02:56:35.669Z,13.75
2023-04-15T02:59:41.556Z,13.30
2023-04-15T03:02:46.307Z,14.57
2023-04-15T03:05:49.127Z,14.50
2023-04-15T03:08:52.086Z,14.10
2023-04-15T03:11:55.026Z,14.65
2023-04-15T03:15:02.312Z,16.42
2023-04-15T03:18:05.504Z,15.80
2023-04-15T03:21:08.380Z,15.27
2023-04-15T03:24:11.379Z,15.05
2023-04-15T03:27:14.064Z,15.00
2023-04-15T03:30:17.400Z,15.77
2023-04-15T03:33:20.131Z,16.67
2023-04-15T03:36:22.842Z,15.63
2023-04-15T03:39:25.991Z,17.55
2023-04-15T03:42:29.105Z,17.98
2023-04-15T03:45:31.867Z,16.55
2023-04-15T03:48:34.787Z,18.75
2023-04-15T03:51:40.884Z,19.27
2023-04-15T03:54:43.679Z,22.48
2023-04-15T03:57:46.750Z,25.37
2023-04-15T04:00:49.586Z,21.77
2023-04-15T04:03:52.648Z,21.20
2023-04-15T04:06:55.656Z,19.47
2023-04-15T04:09:58.572Z,18.83
2023-04-15T04:13:01.891Z,16.60
2023-04-15T04:16:05.320Z,18.62
2023-04-15T04:19:08.032Z,16.92
2023-04-15T04:22:10.943Z,15.67
2023-04-15T04:25:13.695Z,14.30
2023-04-15T04:28:16.908Z,15.10
2023-04-15T04:31:20.008Z,16.05
2023-04-15T04:34:22.780Z,16.60
2023-04-15T04:37:25.904Z,17.67
2023-04-15T04:40:28.807Z,14.98
2023-04-15T04:43:34.544Z,17.00
2023-04-15T04:46:37.289Z,16.25
2023-04-15T04:49:40.137Z,14.73
2023-04-15T04:52:43.075Z,15.67
2023-04-15T04:55:45.811Z,16.15
2023-04-15T04:58:48.602Z,14.32
2023-04-15T05:01:51.735Z,15.60
2023-04-15T05:04:57.223Z,15.15
2023-04-15T05:08:00.826Z,13.80
2023-04-15T05:11:03.897Z,15.15
2023-04-15T05:14:06.565Z,14.00
2023-04-15T05:17:09.294Z,13.73
2023-04-15T05:20:12.770Z,15.57
2023-04-15T05:23:15.693Z,16.93
2023-04-15T05:26:18.489Z,15.10
2023-04-15T05:29:21.306Z,15.82
2023-04-15T05:32:24.117Z,16.33
2023-04-15T05:35:27.409Z,14.95
2023-04-15T05:38:30.299Z,14.47
2023-04-15T05:41:33.457Z,16.75
2023-04-15T05:44:36.411Z,13.75
2023-04-15T05:47:39.215Z,14.20
2023-04-15T05:50:42.681Z,14.00
2023-04-15T05:53:46.236Z,15.23
2023-04-15T05:56:49.338Z,17.73
2023-04-15T05:59:53.146Z,15.27
2023-04-15T06:02:57.213Z,12.85
2023-04-15T06:06:01.080Z,13.80
2023-04-15T06:09:06.531Z,13.40
2023-04-15T06:12:12.839Z,15.27
2023-04-15T06:15:15.856Z,14.07
2023-04-15T06:18:18.604Z,12.50
2023-04-15T06:21:21.687Z,13.25
2023-04-15T06:24:24.836Z,11.43
2023-04-15T06:27:27.607Z,11.43
2023-04-15T06:30:30.417Z,11.75
2023-04-15T06:33:33.114Z,10.85
2023-04-15T06:36:35.950Z,10.80
2023-04-15T06:39:38.850Z,13.40
2023-04-15T06:42:42.181Z,11.00
2023-04-15T06:45:44.887Z,11.30
2023-04-15T06:48:47.725Z,11.27
2023-04-15T06:51:51.604Z,10.70
2023-04-15T06:54:54.494Z,10.77
2023-04-15T06:57:57.365Z,9.65
2023-04-15T07:01:00.234Z,11.12
2023-04-15T07:04:03.045Z,10.68
2023-04-15T07:07:06.233Z,11.05
2023-04-15T07:10:09.450Z,10.47
2023-04-15T07:13:15.196Z,12.37
2023-04-15T07:16:18.626Z,10.15
2023-04-15T07:19:22.036Z,8.70
2023-04-15T07:22:25.280Z,10.02
2023-04-15T07:25:28.096Z,10.43
2023-04-15T07:28:30.958Z,9.35
2023-04-15T07:31:33.808Z,8.82
2023-04-15T07:34:37.859Z,8.00
2023-04-15T07:37:40.737Z,8.05
2023-04-15T07:40:43.465Z,6.53
2023-04-15T07:43:46.191Z,8.95
2023-04-15T07:46:49.046Z,7.78
2023-04-15T07:49:52.389Z,7.43
2023-04-15T07:52:55.239Z,7.82
2023-04-15T07:56:01.087Z,6.03
2023-04-15T07:59:04.921Z,5.97
2023-04-15T08:02:08.855Z,6.30
2023-04-15T08:05:15.397Z,6.07
2023-04-15T08:08:18.245Z,6.45
2023-04-15T08:11:21.623Z,5.70
2023-04-15T08:14:25.033Z,4.60
2023-04-15T08:17:31.259Z,5.80
2023-04-15T08:20:37.424Z,5.22
2023-04-15T08:23:40.466Z,4.47
2023-04-15T08:26:43.438Z,4.50
2023-04-15T08:29:49.092Z,4.22
2023-04-15T08:32:51.988Z,3.60
2023-04-15T08:35:54.876Z,3.42
2023-04-15T08:38:58.224Z,5.55
2023-04-15T08:42:02.783Z,5.00
2023-04-15T08:45:06.167Z,4.97
2023-04-15T08:48:10.958Z,3.95
2023-04-15T08:51:16.398Z,4.87
2023-04-15T08:54:19.701Z,4.15
2023-04-15T08:57:27.830Z,4.63
2023-04-15T09:00:31.645Z,3.75
2023-04-15T09:03:35.299Z,3.80
2023-04-15T09:06:41.881Z,3.05
2023-04-15T09:09:44.628Z,3.35
2023-04-15T09:12:47.387Z,4.47
2023-04-15T09:15:50.626Z,4.50
2023-04-15T09:18:54.326Z,4.25
2023-04-15T09:21:59.213Z,4.87
2023-04-15T09:25:26.932Z,5.37
2023-04-15T09:28:30.154Z,3.40
2023-04-15T09:31:33.200Z,3.33
2023-04-15T09:34:37.889Z,3.67
2023-04-15T09:37:40.710Z,3.58
2023-04-15T09:40:43.495Z,3.40
2023-04-15T09:43:46.656Z,2.90
2023-04-15T09:46:49.342Z,3.95
2023-04-15T09:49:59.649Z,4.25
2023-04-15T09:53:04.219Z,4.43
2023-04-15T09:56:09.174Z,3.65
2023-04-15T09:59:12.348Z,4.03
2023-04-15T10:02:16.188Z,5.43
2023-04-15T10:05:19.203Z,4.45
2023-04-15T10:08:27.366Z,3.65
2023-04-15T10:11:31.626Z,2.35
2023-04-15T10:14:36.729Z,2.87
2023-04-15T10:17:42.681Z,3.62
2023-04-15T10:20:47.119Z,3.45
2023-04-15T10:23:50.475Z,4.25
2023-04-15T10:26:53.456Z,3.78
2023-04-15T10:29:57.461Z,3.67
2023-04-15T10:33:01.952Z,3.90
2023-04-15T10:36:05.436Z,3.10
2023-04-15T10:39:40.185Z,3.00
2023-04-15T10:42:42.937Z,4.03
2023-04-15T10:45:46.182Z,3.90
2023-04-15T10:48:53.611Z,5.57
2023-04-15T10:52:00.134Z,3.90
2023-04-15T10:55:05.211Z,3.62
2023-04-15T10:58:10.630Z,3.42
2023-04-15T11:01:13.629Z,3.30
2023-04-15T11:04:51.555Z,3.72
2023-04-15T11:07:58.926Z,4.87
2023-04-15T11:11:01.746Z,5.35
2023-04-15T11:14:04.909Z,3.97
2023-04-15T11:17:08.103Z,3.73
2023-04-15T11:20:17.518Z,3.72
2023-04-15T11:23:34.570Z,3.28
2023-04-15T11:26:43.767Z,3.92
2023-04-15T11:29:49.631Z,3.92
2023-04-15T11:32:54.871Z,4.93
2023-04-15T11:35:57.623Z,4.18
2023-04-15T11:39:00.834Z,3.60
2023-04-15T11:42:03.895Z,3.35
2023-04-15T11:45:14.425Z,2.15
2023-04-15T11:48:17.439Z,1.20
2023-04-15T11:51:22.238Z,2.87
2023-04-15T11:54:25.732Z,2.12
2023-04-15T11:57:32.455Z,1.95
2023-04-15T12:00:39.896Z,3.15
2023-04-15T12:03:50.418Z,3.20
2023-04-15T12:06:53.415Z,4.45
2023-04-15T12:09:57.674Z,3.28
2023-04-15T12:13:03.155Z,3.15
2023-04-15T12:16:06.248Z,2.45
2023-04-15T12:19:14.613Z,2.07
2023-04-15T12:22:18.244Z,2.85
2023-04-15T12:25:34.624Z,2.62
2023-04-15T12:28:37.711Z,1.92
2023-04-15T12:31:54.573Z,2.67
2023-04-15T12:34:58.387Z,2.20
2023-04-15T12:38:01.344Z,2.03
2023-04-15T12:41:04.922Z,3.35
2023-04-15T12:44:07.881Z,2.50
2023-04-15T12:47:11.631Z,3.03
2023-04-15T12:50:14.558Z,3.10
2023-04-15T12:53:17.423Z,2.47
2023-04-15T12:56:20.410Z,3.33
2023-04-15T12:59:24.395Z,3.75
2023-04-15T13:02:29.236Z,3.05
2023-04-15T13:05:32.520Z,3.07
2023-04-15T13:08:38.439Z,3.45
2023-04-15T13:11:43.642Z,5.12
2023-04-15T13:14:47.849Z,3.83
2023-04-15T13:17:50.840Z,3.65
2023-04-15T13:20:54.707Z,5.03
2023-04-15T13:23:57.798Z,4.57
2023-04-15T13:27:00.638Z,5.00
2023-04-15T13:30:04.395Z,4.30
2023-04-15T13:33:07.267Z,4.95
2023-04-15T13:36:10.156Z,3.53
2023-04-15T13:39:13.088Z,3.33
2023-04-15T13:42:16.088Z,2.97
2023-04-15T13:45:19.099Z,3.67
2023-04-15T13:48:22.247Z,3.65
2023-04-15T13:51:25.112Z,3.43
2023-04-15T13:54:37.772Z,5.60
2023-04-15T13:57:44.068Z,3.78
2023-04-15T14:00:46.930Z,4.22
2023-04-15T14:03:49.858Z,4.07
2023-04-15T14:06:52.849Z,3.97
2023-04-15T14:09:55.774Z,4.90
2023-04-15T14:12:58.698Z,6.22
2023-04-15T14:16:01.427Z,5.57
2023-04-15T14:19:05.117Z,4.18
2023-04-15T14:22:08.330Z,4.37
2023-04-15T14:25:17.206Z,3.95
2023-04-15T14:28:23.109Z,3.83
2023-04-15T14:31:25.953Z,3.90
2023-04-15T14:34:29.271Z,5.22
2023-04-15T14:37:32.059Z,3.40
2023-04-15T14:40:34.950Z,3.62
2023-04-15T14:43:37.999Z,3.67
2023-04-15T14:46:41.292Z,4.07
2023-04-15T14:49:44.503Z,3.60
2023-04-15T14:52:47.363Z,3.70
2023-04-15T14:55:50.041Z,3.80
2023-04-15T14:58:54.351Z,3.67
2023-04-15T15:01:57.319Z,3.72
2023-04-15T15:05:01.921Z,4.00
2023-04-15T15:08:06.449Z,4.30
2023-04-15T15:11:09.389Z,4.12
2023-04-15T15:14:12.583Z,3.85
2023-04-15T15:17:17.789Z,3.33
2023-04-15T15:20:25.694Z,3.20
2023-04-15T15:23:29.519Z,4.23
2023-04-15T15:26:32.446Z,4.55
2023-04-15T15:29:36.207Z,5.55
2023-04-15T15:32:40.938Z,3.67
2023-04-15T15:35:44.631Z,2.65
2023-04-15T15:38:48.501Z,2.50
2023-04-15T15:41:51.599Z,2.72
2023-04-15T15:44:54.364Z,3.45
2023-04-15T15:47:58.624Z,10.38
2023-04-15T15:51:01.888Z,6.90
2023-04-15T15:57:54.934Z,4.70
2023-04-15T16:00:59.178Z,5.28
2023-04-15T16:04:04.085Z,5.95
2023-04-15T16:07:07.112Z,10.40
2023-04-15T16:10:10.102Z,9.93
2023-04-15T16:13:12.941Z,7.15
2023-04-15T16:16:15.942Z,6.72
2023-04-15T16:19:20.090Z,7.95
2023-04-15T16:22:23.193Z,8.18
2023-04-15T16:25:26.009Z,8.70
2023-04-15T16:28:29.083Z,8.43
2023-04-15T16:31:32.056Z,9.65
2023-04-15T16:34:39.481Z,9.07
2023-04-15T16:37:42.429Z,8.68
2023-04-15T16:40:45.289Z,9.07
2023-04-15T16:43:48.253Z,10.18
2023-04-15T16:46:54.288Z,9.48
2023-04-15T16:49:59.812Z,8.40
2023-04-15T16:53:02.719Z,7.50
2023-04-15T16:56:05.769Z,8.10
2023-04-15T16:59:09.527Z,9.57
2023-04-15T17:02:15.868Z,7.53
2023-04-15T17:05:21.873Z,8.05
2023-04-15T17:08:24.524Z,6.68
2023-04-15T17:11:28.508Z,7.10
2023-04-15T17:14:35.250Z,7.80
2023-04-15T17:17:38.098Z,6.95
2023-04-15T17:20:40.791Z,7.85
2023-04-15T17:23:43.545Z,6.53
2023-04-15T17:26:47.208Z,5.97
2023-04-15T17:29:49.948Z,6.03
2023-04-15T17:32:52.794Z,6.30
2023-04-15T17:35:55.757Z,6.30
2023-04-15T17:38:58.468Z,5.35
2023-04-15T17:42:01.985Z,6.40
2023-04-15T17:45:05.329Z,7.62
2023-04-15T17:48:08.301Z,6.75
2023-04-15T17:51:12.969Z,10.93
2023-04-15T17:54:16.027Z,6.75
2023-04-15T17:57:22.112Z,9.93
2023-04-15T18:00:25.243Z,8.20
2023-04-15T18:03:28.212Z,6.82
2023-04-15T18:06:31.222Z,7.12
2023-04-15T18:09:34.299Z,8.82
2023-04-15T18:12:37.602Z,7.40
2023-04-15T18:15:40.588Z,8.55
2023-04-15T18:18:44.296Z,7.62
2023-04-15T18:21:47.368Z,7.78
2023-04-15T18:24:50.270Z,7.05
2023-04-15T18:27:53.268Z,7.70
2023-04-15T18:30:57.032Z,7.40
2023-04-15T18:33:59.779Z,9.65
2023-04-15T18:37:03.444Z,8.73
2023-04-15T18:40:10.739Z,8.77
2023-04-15T18:43:13.910Z,9.20
2023-04-15T18:46:17.203Z,10.48
2023-04-15T18:49:21.133Z,11.73
2023-04-15T18:52:23.923Z,12.15
2023-04-15T18:55:27.005Z,13.45
2023-04-15T18:58:29.882Z,12.53
2023-04-15T19:01:53.287Z,16.15
2023-04-15T19:04:56.320Z,14.38
2023-04-15T19:07:59.771Z,12.55
2023-04-15T19:11:02.621Z,13.38
2023-04-15T19:14:05.811Z,14.27
2023-04-15T19:17:08.817Z,11.43
2023-04-15T19:20:12.301Z,10.38
2023-04-15T19:23:15.712Z,13.85
2023-04-15T19:26:18.509Z,13.27
2023-04-15T19:29:22.946Z,13.53
2023-04-15T19:32:25.783Z,11.02
2023-04-15T19:35:28.955Z,9.75
2023-04-15T19:38:32.973Z,9.48
2023-04-15T19:41:36.400Z,11.20
2023-04-15T19:44:42.918Z,9.00
2023-04-15T19:47:46.265Z,11.23
2023-04-15T19:50:49.301Z,9.68
2023-04-15T19:53:54.007Z,11.23
2023-04-15T19:56:57.885Z,11.38
2023-04-15T20:00:00.602Z,11.83
2023-04-15T20:03:03.785Z,12.65
2023-04-15T20:06:06.875Z,13.05
2023-04-15T20:09:11.548Z,30.58
2023-04-15T20:12:49.232Z,28.55
2023-04-15T20:15:37.939Z,32.77
2023-04-15T20:18:41.682Z,29.90
2023-04-15T20:21:45.547Z,30.95
2023-04-15T20:24:48.959Z,28.73
2023-04-15T20:27:52.393Z,27.20
2023-04-15T20:30:55.579Z,35.73
2023-04-15T20:33:58.372Z,36.63
2023-04-15T20:37:01.674Z,41.10
2023-04-15T20:40:06.721Z,33.88
2023-04-15T20:43:10.526Z,37.42
2023-04-15T20:46:20.607Z,30.17
2023-04-15T20:49:24.819Z,30.83
2023-04-15T20:52:28.528Z,37.47
2023-04-15T20:55:33.658Z,34.58
2023-04-15T20:58:37.782Z,33.30
2023-04-15T21:01:41.044Z,39.30
2023-04-15T21:04:44.023Z,34.50
2023-04-15T21:07:46.790Z,29.40
2023-04-15T21:10:50.138Z,28.77
2023-04-15T21:13:53.584Z,27.13
2023-04-15T21:16:59.663Z,35.70
2023-04-15T21:20:02.636Z,30.12
2023-04-15T21:23:05.531Z,28.50
2023-04-15T21:26:08.592Z,30.02
2023-04-15T21:29:12.009Z,28.98
2023-04-15T21:32:16.122Z,28.20
2023-04-15T21:35:18.920Z,28.87
2023-04-15T21:38:23.335Z,33.67
2023-04-15T21:41:27.390Z,28.20
2023-04-15T21:44:30.190Z,25.27
2023-04-15T21:48:04.785Z,24.67
2023-04-15T21:50:59.905Z,29.83
2023-04-15T21:54:02.772Z,32.58
2023-04-15T21:57:05.584Z,30.00
2023-04-15T22:00:10.504Z,27.35
2023-04-15T22:03:13.599Z,24.67
2023-04-15T22:06:16.552Z,26.55
2023-04-15T22:09:19.746Z,26.15
2023-04-15T22:12:22.726Z,34.97
2023-04-15T22:15:25.506Z,25.05
2023-04-15T22:18:28.269Z,30.67
2023-04-15T22:21:31.978Z,29.90
2023-04-15T22:24:40.059Z,31.92
2023-04-15T22:27:43.854Z,27.33
2023-04-15T22:30:46.622Z,28.40
2023-04-15T22:33:49.498Z,37.20
2023-04-15T22:36:52.885Z,32.85
2023-04-15T22:39:55.735Z,39.65
2023-04-15T22:42:58.470Z,37.67
2023-04-15T22:46:01.595Z,29.90
2023-04-15T22:49:08.410Z,34.27
2023-04-15T22:52:17.129Z,31.48
2023-04-15T22:55:23.261Z,26.10
2023-04-15T22:58:26.085Z,25.05
2023-04-15T23:01:29.197Z,24.95
2023-04-15T23:04:32.127Z,23.37
2023-04-15T23:07:34.950Z,21.30
2023-04-15T23:10:40.233Z,23.05
2023-04-15T23:13:42.985Z,26.12
2023-04-15T23:16:45.934Z,21.00
2023-04-15T23:19:48.677Z,20.93
2023-04-15T23:22:51.297Z,20.02
2023-04-15T23:25:54.156Z,18.50
2023-04-15T23:28:56.877Z,16.48
2023-04-15T23:31:59.634Z,16.73
2023-04-15T23:35:02.364Z,16.57
2023-04-15T23:38:05.072Z,18.30
2023-04-15T23:41:09.073Z,16.02
2023-04-15T23:44:11.906Z,17.83
2023-04-15T23:47:14.599Z,15.13
2023-04-15T23:50:17.303Z,14.13
2023-04-15T23:53:20.037Z,14.95
2023-04-15T23:56:22.771Z,13.77
2023-04-15T23:59:25.505Z,14.15
